LGLM

Limnos Airport

Limnos Island, Greece
TAF LGLM 221700Z 2218/2303 18015G30KT 9999 FEW010 BKN025 PROB40 TEMPO 2218/2303 6000 RA PROB30 TEMPO 2218/2223 4000 TSRA FEW018CB BKN020
Issued Valid From Valid To
Jan-22 @ 17:00 UTC
(46 minutes ago)
Jan-22 @ 18:00 UTC
(in 14 minutes)
Jan-23 @ 03:00 UTC
(in 9 hours)
Jan-22 @ 18:00 to Jan-23 @ 03:00
TAF LGLM 221700Z 2218/2303 18015G30KT 9999 FEW010 BKN025
Wind Visibility Clouds
180° at 15 knots
 Gusting to 30 knots
10,000+ meters
  • Few at 1,000' AGL
  • Broken at 2,500' AGL
Temporary  (Probability 30%) Jan-22 @ 18:00 to Jan-22 @ 23:00
PROB30 TEMPO 2218/2223 4000 TSRA FEW018CB BKN020
Visibility Clouds Conditions
4,007 meters
  • Few at 1,800' AGL
  • Broken at 2,000' AGL
  • Thunderstorm
  • Rain
Temporary  (Probability 40%) Jan-22 @ 18:00 to Jan-23 @ 03:00
PROB40 TEMPO 2218/2303 6000 RA
Visibility Conditions
6,003 meters
  • Rain
TAF LGLM 221700Z 2218/2303 18015G30KT 9999 FEW010 BKN025 PROB40 TEMPO 2218/2303 6000 RA PROB30 TEMPO 2218/2223 4000 TSRA FEW018CB BKN020
Issued Jan-22 @ 17:00 UTC
(46 minutes ago)
Valid From Jan-22 @ 18:00 UTC
(in 14 minutes)
Valid To Jan-23 @ 03:00 UTC
(in 9 hours)
Jan-22 @ 18:00 - Jan-23 @ 03:00
Wind Visibility
180° at 15 knots
 Gusting to 30 knots
10,000+ meters
Clouds
  • Few at 1,000' AGL
  • Broken at 2,500' AGL
Probability 30% Temporary Jan-22 @ 18:00 - Jan-22 @ 23:00
Clouds
  • Few at 1,800' AGL
  • Broken at 2,000' AGL
Conditions
  • Thunderstorm
  • Rain
Probability 40% Temporary Jan-22 @ 18:00 - Jan-23 @ 03:00
Conditions
  • Rain